Boutte, LA

3:15 AM CST on March 05, 2015 (GMT -0600)
New Orleans Naval Air Station | Change Station
CLOSE
Current Station
Airport
Location: New Orleans NAS,
Elevation: 3 ft
Nearby Weather Stations
Active Advisory: Wind Advisory Active Notice: Record Report

Elev 3 ft 29.83 °N, 90.04 °W | Updated 12 minutes ago

Partly Cloudy
Partly Cloudy
72 °F
Feels Like 72 °F
N
10
Wind Variable Wind from SSW

Today
High -- | Low -- °F
--% Chance of Precip.
Yesterday
High -- | Low -- °F
Precip. -- in
6:23 AM 6:03 PM
Full, 100% visible
Pressure 29.91 in
Visibility 6.0 miles
Clouds Scattered Clouds 800 ft
Mostly Cloudy 1800 ft
Dew Point 68 °F
Humidity 87%
Rainfall 0.00 in
Snow Depth Not available.
UV 0 out of 12
Pollen 10.40 out of 12
Air Quality Not available.
Flu Activity Not available.
SPECI KNBG 050903Z AUTO 20009KT 6SM BR SCT008 BKN018 22/20 A2991 RMK AO2 T02220200 $

More Conditions Fewer Conditions

Pressure 29.91 in
Visibility 6.0 miles
Clouds Scattered Clouds 800 ft
Mostly Cloudy 1800 ft
Dew Point 68 °F
Humidity 87%
Rainfall 0.00 in
Snow Depth Not available.
UV 0 out of 12
Pollen 10.40 out of 12
Air Quality Not available.
Flu Activity Not available.
SPECI KNBG 050903Z AUTO 20009KT 6SM BR SCT008 BKN018 22/20 A2991 RMK AO2 T02220200 $

More Conditions Fewer Conditions

10-Day Weather Forecast

Almanac

Astronomy

Mar. 05, 2015 Rise Set
Actual Time
Civil Twilight
Nautical Twilight
Astronomical Twilight
Moon
Length of Visible Light
Length of Day
Tomorrow will be .
, % of the Moon is Illuminated

Today's Extremes

State Highs State Lows

Community

WunderPhotos

Upload Photos

1,802,704 photos uploaded!

WunderBlogs® & News

Nearby

Air Quality

  Air Quality AQ Index Pollutant
Not available.

Snow Depth

Station Depth Elevation

Earthquake Activity

City Distance Mag. Time & Date
Minimum magnitude displayed is 2.5.

Coastal Water Temperatures

Place Temperature

Nearby Weather Stations

Wind Advisory
Statement as of 9:35 PM CST on March 04, 2015

... Wind Advisory remains in effect from noon Thursday to midnight
CST Thursday night...

* timing... Thursday afternoon and evening

* winds... sustained winds 20 to 30 mph with higher gusts

* duration... around 12 hours of strong gusty winds can be
expected

* impacts... strong winds will make driving difficult... especially
on east to west oriented roadways and bridges. Additionally... small
tree limbs could be blown down and unsecured light weight items
such as trash cans and light outdoor furniture could be blown
around.

Precautionary/preparedness actions...

A Wind Advisory means that winds of 26 to 39 mph are expected.
Winds this strong can make driving difficult... especially for
high profile vehicles. Use extra caution.